Time;durP1;ratioP1;P1;durP2;ratioP2;P2;SDS_P1;SDS_P2;PMS_P1;PMS_P2;Temp;Humidity;BMP_temperature;BMP_pressure;BME280_temperature;BME280_humidity;BME280_pressure;Samples;Min_cycle;Max_cycle;Signal;HPM_P1;HPM_P2
2022/10/29 00:00:56;;;;;;;6.47;3.80;;;;;;;;;;5014475;28;20477;-62
2022/10/29 00:03:24;;;;;;;6.40;4.10;;;;;;;;;;5014603;28;20450;-62
2022/10/29 00:05:58;;;;;;;6.78;4.45;;;;;;;;;;5014245;28;20972;-62
2022/10/29 00:08:27;;;;;;;14.67;5.30;;;;;;;;;;5014239;28;20200;-62
2022/10/29 00:10:54;;;;;;;6.43;4.07;;;;;;;;;;5014100;28;20508;-60
2022/10/29 00:13:21;;;;;;;8.33;4.70;;;;;;;;;;5014055;28;20481;-62
2022/10/29 00:15:48;;;;;;;5.97;5.05;;;;;;;;;;5014247;28;20501;-62
2022/10/29 00:18:15;;;;;;;11.40;4.47;;;;;;;;;;5014128;28;20649;-61
2022/10/29 00:20:42;;;;;;;10.27;4.80;;;;;;;;;;5013921;28;20512;-61
2022/10/29 00:23:09;;;;;;;5.80;4.55;;;;;;;;;;5014199;28;20482;-61
2022/10/29 00:25:38;;;;;;;9.27;4.90;;;;;;;;;;5014162;28;20293;-61
2022/10/29 00:28:05;;;;;;;7.60;5.35;;;;;;;;;;5014514;28;20500;-62
2022/10/29 00:30:32;;;;;;;10.03;4.60;;;;;;;;;;5014421;28;20195;-61
2022/10/29 00:33:00;;;;;;;11.00;4.50;;;;;;;;;;5014282;28;20458;-61
2022/10/29 00:35:27;;;;;;;7.40;4.63;;;;;;;;;;5014087;28;20787;-61
2022/10/29 00:37:54;;;;;;;9.67;5.10;;;;;;;;;;5014024;28;20969;-61
2022/10/29 00:40:22;;;;;;;12.80;4.90;;;;;;;;;;5014136;28;20463;-61
2022/10/29 00:42:51;;;;;;;7.27;5.17;;;;;;;;;;5014061;28;20535;-61
2022/10/29 00:45:19;;;;;;;13.37;4.80;;;;;;;;;;5013814;28;20841;-61
2022/10/29 00:47:48;;;;;;;11.80;4.90;;;;;;;;;;5014014;28;20508;-61
2022/10/29 00:50:15;;;;;;;7.70;4.60;;;;;;;;;;5014214;28;20853;-61
2022/10/29 00:52:45;;;;;;;11.93;5.20;;;;;;;;;;5014051;28;20473;-61
2022/10/29 00:55:14;;;;;;;11.57;4.90;;;;;;;;;;5013907;28;20798;-61
2022/10/29 00:57:45;;;;;;;8.23;4.77;;;;;;;;;;5013916;28;20206;-61
2022/10/29 01:00:15;;;;;;;7.30;4.40;;;;;;;;;;5013807;28;20453;-61
2022/10/29 01:02:44;;;;;;;6.40;4.73;;;;;;;;;;5013579;28;20489;-61
2022/10/29 01:05:13;;;;;;;5.82;3.95;;;;;;;;;;5014255;28;20457;-61
2022/10/29 01:07:41;;;;;;;8.80;4.43;;;;;;;;;;5013586;28;20226;-61
2022/10/29 01:10:09;;;;;;;12.40;5.47;;;;;;;;;;5013817;28;20453;-61
2022/10/29 01:12:49;;;;;;;9.40;4.50;;;;;;;;;;5013792;28;20454;-61
2022/10/29 01:15:22;;;;;;;7.33;5.03;;;;;;;;;;5013673;28;20979;-61
2022/10/29 01:17:54;;;;;;;13.25;5.38;;;;;;;;;;5013885;28;21000;-61
2022/10/29 01:20:33;;;;;;;8.25;4.80;;;;;;;;;;5013678;28;20277;-61
2022/10/29 01:23:06;;;;;;;8.50;4.60;;;;;;;;;;5012944;28;20215;-61
2022/10/29 01:25:43;;;;;;;9.27;5.67;;;;;;;;;;5013943;28;20453;-61
2022/10/29 01:28:19;;;;;;;10.37;4.63;;;;;;;;;;5013874;28;20484;-61
2022/10/29 01:31:06;;;;;;;8.57;4.87;;;;;;;;;;5013577;28;20826;-61
2022/10/29 01:33:37;;;;;;;7.10;4.40;;;;;;;;;;5013887;28;20453;-61
2022/10/29 01:36:08;;;;;;;9.70;4.82;;;;;;;;;;5013442;28;20469;-61
2022/10/29 01:38:37;;;;;;;9.03;4.60;;;;;;;;;;5013837;28;20547;-61
2022/10/29 01:41:08;;;;;;;6.13;4.97;;;;;;;;;;5013897;28;20450;-61
2022/10/29 01:43:37;;;;;;;11.00;4.80;;;;;;;;;;5013302;28;20490;-61
2022/10/29 01:46:09;;;;;;;5.93;4.73;;;;;;;;;;5013363;28;20500;-60
2022/10/29 01:48:38;;;;;;;6.30;4.60;;;;;;;;;;5013110;28;20454;-60
2022/10/29 01:51:08;;;;;;;9.67;5.00;;;;;;;;;;5013650;28;20486;-60
2022/10/29 01:53:37;;;;;;;6.70;4.60;;;;;;;;;;5013327;28;20961;-60
2022/10/29 01:56:04;;;;;;;9.57;5.10;;;;;;;;;;5013266;28;20817;-62
2022/10/29 01:58:32;;;;;;;7.10;4.55;;;;;;;;;;5013169;28;20456;-60
2022/10/29 02:01:03;;;;;;;6.60;4.77;;;;;;;;;;5013369;28;20195;-60
2022/10/29 02:03:37;;;;;;;9.00;5.30;;;;;;;;;;5013394;28;20985;-60
2022/10/29 02:06:07;;;;;;;7.40;4.63;;;;;;;;;;5013225;28;20534;-60
2022/10/29 02:08:38;;;;;;;9.63;6.30;;;;;;;;;;5013299;28;20979;-60
2022/10/29 02:11:10;;;;;;;12.83;5.33;;;;;;;;;;5013004;28;20446;-61
2022/10/29 02:13:40;;;;;;;9.37;5.13;;;;;;;;;;5013418;28;20460;-60
2022/10/29 02:16:09;;;;;;;7.83;4.67;;;;;;;;;;5013311;28;21028;-60
2022/10/29 02:18:48;;;;;;;7.30;4.80;;;;;;;;;;5013247;28;20535;-60
2022/10/29 02:21:16;;;;;;;5.60;4.60;;;;;;;;;;5013331;28;20450;-61
2022/10/29 02:23:43;;;;;;;8.13;4.50;;;;;;;;;;5013192;28;20481;-60
2022/10/29 02:26:11;;;;;;;5.32;4.20;;;;;;;;;;5013339;28;20497;-60
2022/10/29 02:28:38;;;;;;;7.37;5.20;;;;;;;;;;5013235;28;20187;-61
2022/10/29 02:31:05;;;;;;;6.80;4.80;;;;;;;;;;5013068;28;20465;-61
2022/10/29 02:33:33;;;;;;;7.10;4.73;;;;;;;;;;5013661;28;20555;-60
2022/10/29 02:36:02;;;;;;;10.37;5.37;;;;;;;;;;5016809;28;20450;-60
2022/10/29 02:38:29;;;;;;;7.10;4.80;;;;;;;;;;5016487;28;20453;-61
2022/10/29 02:40:59;;;;;;;8.33;5.43;;;;;;;;;;5016568;28;20454;-61
2022/10/29 02:43:26;;;;;;;10.60;5.30;;;;;;;;;;5016156;28;20494;-61
2022/10/29 02:46:08;;;;;;;9.47;4.73;;;;;;;;;;5016689;28;20454;-61
2022/10/29 02:48:36;;;;;;;11.33;5.63;;;;;;;;;;5016445;28;20454;-61
2022/10/29 02:51:05;;;;;;;11.10;4.90;;;;;;;;;;5016582;28;20529;-61
2022/10/29 02:53:32;;;;;;;10.27;5.53;;;;;;;;;;5016350;28;20450;-61
2022/10/29 02:56:00;;;;;;;6.70;5.40;;;;;;;;;;5016370;28;20794;-61
2022/10/29 02:58:27;;;;;;;6.90;5.30;;;;;;;;;;5016175;28;20941;-61
2022/10/29 03:00:54;;;;;;;7.73;4.77;;;;;;;;;;5015956;28;20454;-62
2022/10/29 03:03:22;;;;;;;9.80;5.33;;;;;;;;;;5016023;28;20482;-61
2022/10/29 03:05:49;;;;;;;7.93;5.60;;;;;;;;;;5016019;28;20486;-61
2022/10/29 03:08:19;;;;;;;6.50;5.00;;;;;;;;;;5015971;28;20512;-62
2022/10/29 03:10:46;;;;;;;7.40;5.23;;;;;;;;;;5015739;28;20878;-63
2022/10/29 03:13:14;;;;;;;12.43;6.00;;;;;;;;;;5015902;28;20852;-61
2022/10/29 03:15:44;;;;;;;9.67;5.50;;;;;;;;;;5015803;28;20192;-61
2022/10/29 03:18:12;;;;;;;10.73;6.90;;;;;;;;;;5016029;28;20484;-62
2022/10/29 03:20:39;;;;;;;6.47;4.30;;;;;;;;;;5015558;28;21011;-61
2022/10/29 03:23:07;;;;;;;8.23;5.20;;;;;;;;;;5016179;28;20486;-61
2022/10/29 03:25:36;;;;;;;6.10;4.60;;;;;;;;;;5015625;28;20623;-60
2022/10/29 03:28:04;;;;;;;9.77;5.43;;;;;;;;;;5015621;28;20458;-61
2022/10/29 03:30:31;;;;;;;6.43;4.80;;;;;;;;;;5015742;28;20457;-61
2022/10/29 03:32:58;;;;;;;8.33;5.27;;;;;;;;;;5015645;28;20610;-61
2022/10/29 03:35:26;;;;;;;7.50;5.20;;;;;;;;;;5015767;28;20477;-61
2022/10/29 03:37:54;;;;;;;8.70;5.13;;;;;;;;;;5015440;28;20454;-61
2022/10/29 03:40:21;;;;;;;11.83;4.77;;;;;;;;;;5015348;28;20953;-62
2022/10/29 03:42:50;;;;;;;9.40;5.57;;;;;;;;;;5015295;28;20482;-61
2022/10/29 03:45:18;;;;;;;7.03;5.20;;;;;;;;;;5014627;28;20992;-63
2022/10/29 03:47:45;;;;;;;11.27;5.77;;;;;;;;;;5015589;28;20454;-61
2022/10/29 03:50:12;;;;;;;9.40;5.80;;;;;;;;;;5015231;28;20454;-61
2022/10/29 03:52:40;;;;;;;8.73;5.53;;;;;;;;;;5015082;28;20505;-61
2022/10/29 03:55:08;;;;;;;9.10;5.53;;;;;;;;;;5015076;28;20453;-61
2022/10/29 03:57:35;;;;;;;8.50;5.30;;;;;;;;;;5015102;28;20533;-61
2022/10/29 04:00:04;;;;;;;13.13;5.30;;;;;;;;;;5015205;28;20533;-61
2022/10/29 04:02:31;;;;;;;9.38;5.40;;;;;;;;;;5014241;28;20514;-61
2022/10/29 04:04:58;;;;;;;8.20;5.60;;;;;;;;;;5014364;28;20197;-61
2022/10/29 04:07:25;;;;;;;7.10;4.80;;;;;;;;;;5014318;28;20500;-62
2022/10/29 04:09:52;;;;;;;10.20;5.60;;;;;;;;;;5014105;28;20842;-61
2022/10/29 04:12:19;;;;;;;9.53;5.07;;;;;;;;;;5014241;28;20507;-62
2022/10/29 04:14:47;;;;;;;7.88;4.47;;;;;;;;;;5014241;28;20450;-61
2022/10/29 04:17:15;;;;;;;7.67;5.73;;;;;;;;;;5014044;28;20704;-61
2022/10/29 04:19:42;;;;;;;6.00;4.90;;;;;;;;;;5013965;28;20486;-61
2022/10/29 04:22:09;;;;;;;7.50;5.23;;;;;;;;;;5013885;28;20458;-61
2022/10/29 04:24:36;;;;;;;4.90;4.50;;;;;;;;;;5013793;28;21020;-61
2022/10/29 04:27:03;;;;;;;8.10;5.50;;;;;;;;;;5014167;28;20452;-61
2022/10/29 04:29:30;;;;;;;12.00;5.50;;;;;;;;;;5014020;28;20511;-61
2022/10/29 04:31:57;;;;;;;7.13;5.10;;;;;;;;;;5013838;28;20454;-61
2022/10/29 04:34:26;;;;;;;10.13;5.60;;;;;;;;;;5013738;28;20936;-61
2022/10/29 04:36:53;;;;;;;9.60;5.17;;;;;;;;;;5013866;28;20446;-61
2022/10/29 04:39:20;;;;;;;9.17;5.93;;;;;;;;;;5013855;28;20458;-61
2022/10/29 04:41:48;;;;;;;13.60;5.30;;;;;;;;;;5013777;28;20864;-61
2022/10/29 04:44:15;;;;;;;7.93;5.47;;;;;;;;;;5013309;28;20577;-61
2022/10/29 04:46:42;;;;;;;8.77;6.00;;;;;;;;;;5013649;28;20454;-61
2022/10/29 04:49:09;;;;;;;11.73;6.03;;;;;;;;;;5013559;28;20544;-61
2022/10/29 04:51:37;;;;;;;6.73;5.40;;;;;;;;;;5013431;28;20493;-61
2022/10/29 04:54:05;;;;;;;6.80;5.90;;;;;;;;;;5013455;28;20460;-61
2022/10/29 04:56:32;;;;;;;7.27;5.70;;;;;;;;;;5012813;28;20454;-61
2022/10/29 04:58:59;;;;;;;8.07;5.27;;;;;;;;;;5012999;28;20461;-61
2022/10/29 05:01:26;;;;;;;11.63;6.30;;;;;;;;;;5014023;28;20505;-61
2022/10/29 05:03:54;;;;;;;10.83;5.90;;;;;;;;;;5013964;28;21007;-61
2022/10/29 05:06:21;;;;;;;12.43;5.97;;;;;;;;;;5014319;28;20516;-61
2022/10/29 05:08:50;;;;;;;8.97;5.57;;;;;;;;;;5013477;28;20460;-61
2022/10/29 05:11:17;;;;;;;11.33;5.70;;;;;;;;;;5013404;28;20473;-60
2022/10/29 05:13:45;;;;;;;7.10;5.83;;;;;;;;;;5013234;28;20454;-61
2022/10/29 05:16:12;;;;;;;8.40;5.70;;;;;;;;;;5013267;28;20477;-61
2022/10/29 05:18:40;;;;;;;10.63;5.40;;;;;;;;;;5013930;28;20450;-61
2022/10/29 05:21:08;;;;;;;9.30;5.60;;;;;;;;;;5014286;28;20512;-60
2022/10/29 05:23:35;;;;;;;8.80;5.10;;;;;;;;;;5013951;28;20572;-60
2022/10/29 05:26:04;;;;;;;7.13;5.77;;;;;;;;;;5013943;28;20494;-60
2022/10/29 05:28:31;;;;;;;7.13;5.17;;;;;;;;;;5013186;28;20454;-60
2022/10/29 05:31:00;;;;;;;11.83;5.57;;;;;;;;;;5012948;28;20460;-61
2022/10/29 05:33:27;;;;;;;8.87;5.60;;;;;;;;;;5013235;28;20442;-61
2022/10/29 05:35:54;;;;;;;8.87;6.13;;;;;;;;;;5013133;28;20991;-61
2022/10/29 05:38:22;;;;;;;8.10;5.37;;;;;;;;;;5012943;28;20441;-61
2022/10/29 05:40:49;;;;;;;10.70;5.40;;;;;;;;;;5012752;28;20492;-61
2022/10/29 05:43:17;;;;;;;14.33;5.17;;;;;;;;;;5012575;28;20519;-61
2022/10/29 05:45:45;;;;;;;12.00;6.13;;;;;;;;;;5012850;28;20455;-61
2022/10/29 05:48:12;;;;;;;8.37;6.40;;;;;;;;;;5013164;28;20787;-61
2022/10/29 05:50:40;;;;;;;8.77;6.07;;;;;;;;;;5013001;28;20454;-61
2022/10/29 05:53:07;;;;;;;10.00;7.50;;;;;;;;;;5012921;28;20458;-61
2022/10/29 05:55:35;;;;;;;14.20;6.07;;;;;;;;;;5012866;28;20446;-61
2022/10/29 05:58:03;;;;;;;8.43;5.57;;;;;;;;;;5012804;28;20446;-61
2022/10/29 06:00:32;;;;;;;9.10;5.77;;;;;;;;;;5012695;28;20557;-61
2022/10/29 06:02:59;;;;;;;11.17;6.50;;;;;;;;;;5012835;28;22360;-61
2022/10/29 06:05:27;;;;;;;7.30;6.20;;;;;;;;;;5012933;28;21011;-61
2022/10/29 06:07:54;;;;;;;9.20;6.00;;;;;;;;;;5012763;28;20822;-61
2022/10/29 06:10:21;;;;;;;8.30;6.90;;;;;;;;;;5016635;28;20449;-61
2022/10/29 06:12:49;;;;;;;11.07;5.83;;;;;;;;;;5016334;28;20446;-61
2022/10/29 06:15:16;;;;;;;11.90;6.47;;;;;;;;;;5016519;28;20450;-61
2022/10/29 06:17:45;;;;;;;7.00;6.10;;;;;;;;;;5016639;28;21014;-61
2022/10/29 06:20:13;;;;;;;8.93;5.80;;;;;;;;;;5016374;28;20195;-61
2022/10/29 06:22:41;;;;;;;7.60;5.68;;;;;;;;;;5016144;28;20488;-61
2022/10/29 06:25:08;;;;;;;7.43;5.80;;;;;;;;;;5016246;28;20230;-61
2022/10/29 06:27:36;;;;;;;12.43;5.73;;;;;;;;;;5016672;28;20450;-61
2022/10/29 06:30:03;;;;;;;17.17;6.40;;;;;;;;;;5016879;28;20453;-61
2022/10/29 06:32:31;;;;;;;8.53;5.90;;;;;;;;;;5016901;28;20461;-61
2022/10/29 06:34:59;;;;;;;7.73;5.90;;;;;;;;;;5016852;28;20464;-61
2022/10/29 06:37:28;;;;;;;11.93;6.60;;;;;;;;;;5015873;28;20461;-61
2022/10/29 06:39:55;;;;;;;10.30;6.73;;;;;;;;;;5015826;28;20454;-62
2022/10/29 06:42:22;;;;;;;11.10;6.13;;;;;;;;;;5016195;28;20832;-62
2022/10/29 06:44:49;;;;;;;9.37;6.30;;;;;;;;;;5015851;28;21025;-62
2022/10/29 06:47:16;;;;;;;12.07;6.07;;;;;;;;;;5015838;28;20474;-62
2022/10/29 06:49:43;;;;;;;13.53;6.77;;;;;;;;;;5015598;28;20963;-61
2022/10/29 06:52:11;;;;;;;9.63;6.60;;;;;;;;;;5015652;28;20537;-62
2022/10/29 06:54:38;;;;;;;11.60;6.63;;;;;;;;;;5015525;28;20450;-62
2022/10/29 06:57:05;;;;;;;10.70;6.63;;;;;;;;;;5015962;28;20829;-62
2022/10/29 06:59:32;;;;;;;10.40;6.17;;;;;;;;;;5015722;28;20918;-62
2022/10/29 07:01:59;;;;;;;6.90;5.57;;;;;;;;;;5015788;28;21027;-62
2022/10/29 07:04:26;;;;;;;7.30;5.83;;;;;;;;;;5015433;28;20509;-62
2022/10/29 07:06:53;;;;;;;6.97;5.80;;;;;;;;;;5015256;28;20508;-62
2022/10/29 07:09:22;;;;;;;12.77;6.53;;;;;;;;;;5015429;28;20454;-62
2022/10/29 07:11:48;;;;;;;8.70;5.20;;;;;;;;;;5015471;28;20466;-62
2022/10/29 07:14:15;;;;;;;7.80;6.00;;;;;;;;;;5015240;28;20454;-63
2022/10/29 07:16:43;;;;;;;7.90;6.27;;;;;;;;;;5015338;28;20883;-61
2022/10/29 07:19:10;;;;;;;12.23;6.40;;;;;;;;;;5015184;28;20953;-62
2022/10/29 07:21:37;;;;;;;12.80;6.77;;;;;;;;;;5014109;28;20806;-62
2022/10/29 07:24:04;;;;;;;10.93;6.00;;;;;;;;;;5015199;28;20481;-61
2022/10/29 07:26:32;;;;;;;14.30;6.67;;;;;;;;;;5015084;28;20818;-62
2022/10/29 07:29:00;;;;;;;6.83;6.20;;;;;;;;;;5015035;28;20450;-62
2022/10/29 07:31:27;;;;;;;13.23;6.03;;;;;;;;;;5014890;28;20941;-62
2022/10/29 07:33:54;;;;;;;9.80;6.33;;;;;;;;;;5014852;28;20462;-62
2022/10/29 07:36:21;;;;;;;11.30;5.77;;;;;;;;;;5014803;28;20477;-62
2022/10/29 07:38:48;;;;;;;8.93;5.37;;;;;;;;;;5014974;28;20454;-62
2022/10/29 07:41:15;;;;;;;5.77;5.10;;;;;;;;;;5014577;28;20497;-63
2022/10/29 07:43:44;;;;;;;8.40;5.47;;;;;;;;;;5014568;28;20888;-61
2022/10/29 07:46:10;;;;;;;9.73;5.63;;;;;;;;;;5014472;28;20508;-62
2022/10/29 07:48:38;;;;;;;8.30;5.80;;;;;;;;;;5014636;28;20536;-62
2022/10/29 07:51:05;;;;;;;8.37;5.90;;;;;;;;;;5014862;28;20859;-62
2022/10/29 07:53:32;;;;;;;6.90;5.37;;;;;;;;;;5014414;28;20501;-62
2022/10/29 07:55:59;;;;;;;12.50;6.20;;;;;;;;;;5014540;28;20545;-62
2022/10/29 07:58:26;;;;;;;6.28;5.47;;;;;;;;;;5014397;28;20454;-62
2022/10/29 08:00:55;;;;;;;12.67;7.30;;;;;;;;;;5014330;28;20388;-62
2022/10/29 08:03:22;;;;;;;7.87;5.80;;;;;;;;;;5014160;28;20454;-62
2022/10/29 08:05:49;;;;;;;12.27;6.80;;;;;;;;;;5014390;28;20454;-62
2022/10/29 08:08:17;;;;;;;13.00;6.00;;;;;;;;;;5014402;28;20450;-63
2022/10/29 08:10:44;;;;;;;18.77;7.70;;;;;;;;;;5014102;28;20549;-62
2022/10/29 08:13:11;;;;;;;8.70;5.67;;;;;;;;;;5014439;28;20195;-62
2022/10/29 08:15:39;;;;;;;7.70;5.37;;;;;;;;;;5014045;28;20454;-62
2022/10/29 08:18:12;;;;;;;8.33;5.20;;;;;;;;;;5013930;28;20527;-62
2022/10/29 08:20:39;;;;;;;11.30;4.97;;;;;;;;;;5014272;28;20450;-62
2022/10/29 08:23:06;;;;;;;11.33;5.80;;;;;;;;;;5014122;28;20450;-62
2022/10/29 08:25:33;;;;;;;9.15;5.82;;;;;;;;;;5013831;28;20508;-63
2022/10/29 08:28:00;;;;;;;10.03;4.87;;;;;;;;;;5014075;28;20249;-62
2022/10/29 08:30:27;;;;;;;14.27;6.83;;;;;;;;;;5013876;28;20860;-62
2022/10/29 08:32:54;;;;;;;12.30;5.43;;;;;;;;;;5013533;28;20553;-63
2022/10/29 08:35:23;;;;;;;16.77;5.97;;;;;;;;;;5013955;28;20454;-62
2022/10/29 08:37:50;;;;;;;7.47;5.00;;;;;;;;;;5013963;28;20853;-62
2022/10/29 08:40:25;;;;;;;10.05;7.65;;;;;;;;;;5013758;28;20450;-63
2022/10/29 08:42:59;;;;;;;10.83;6.70;;;;;;;;;;5013652;28;20273;-62
2022/10/29 08:45:30;;;;;;;10.93;6.00;;;;;;;;;;5013722;28;20551;-62
2022/10/29 08:48:06;;;;;;;9.17;5.23;;;;;;;;;;5013918;28;20446;-62
2022/10/29 08:50:39;;;;;;;14.93;6.80;;;;;;;;;;5013588;28;20454;-62
2022/10/29 08:53:09;;;;;;;14.87;6.23;;;;;;;;;;5013522;28;20454;-63
2022/10/29 08:55:37;;;;;;;10.30;4.63;;;;;;;;;;5013731;28;21003;-61
2022/10/29 08:58:22;;;;;;;12.73;5.33;;;;;;;;;;5013626;28;20450;-62
2022/10/29 09:00:52;;;;;;;12.53;6.20;;;;;;;;;;5013515;28;20449;-62
2022/10/29 09:03:19;;;;;;;12.65;5.32;;;;;;;;;;5013311;28;20457;-62
2022/10/29 09:05:50;;;;;;;12.03;5.77;;;;;;;;;;5013257;28;20215;-62
2022/10/29 09:08:26;;;;;;;16.00;6.63;;;;;;;;;;5013517;28;20585;-62
2022/10/29 09:10:54;;;;;;;10.57;6.13;;;;;;;;;;5013173;28;20455;-63
2022/10/29 09:13:32;;;;;;;9.80;5.47;;;;;;;;;;5013645;28;20456;-62
2022/10/29 09:16:02;;;;;;;9.83;5.60;;;;;;;;;;5013158;28;20782;-61
2022/10/29 09:18:33;;;;;;;12.97;5.77;;;;;;;;;;5013204;28;20493;-62
2022/10/29 09:21:07;;;;;;;16.00;5.63;;;;;;;;;;5013359;28;20485;-62
2022/10/29 09:23:50;;;;;;;9.37;5.70;;;;;;;;;;5013657;28;20456;-62
2022/10/29 09:26:19;;;;;;;13.13;6.30;;;;;;;;;;5013317;28;20532;-63
2022/10/29 09:28:53;;;;;;;13.47;5.77;;;;;;;;;;5013009;28;20450;-62
2022/10/29 09:31:24;;;;;;;15.20;6.27;;;;;;;;;;5013578;28;20454;-61
2022/10/29 09:33:53;;;;;;;9.30;5.93;;;;;;;;;;5013223;28;20458;-63
2022/10/29 09:36:22;;;;;;;10.77;6.23;;;;;;;;;;5013074;28;20477;-62
2022/10/29 09:38:53;;;;;;;13.13;5.95;;;;;;;;;;5013052;28;20454;-62
2022/10/29 09:41:22;;;;;;;11.20;5.57;;;;;;;;;;5012953;28;20187;-62
2022/10/29 09:43:54;;;;;;;10.43;6.17;;;;;;;;;;5014214;28;20478;-62
2022/10/29 09:46:25;;;;;;;9.23;5.10;;;;;;;;;;5017048;28;20458;-63
2022/10/29 09:48:56;;;;;;;13.00;6.10;;;;;;;;;;5017014;28;20543;-62
2022/10/29 09:51:30;;;;;;;13.03;5.67;;;;;;;;;;5016982;28;20791;-62
2022/10/29 09:53:57;;;;;;;14.83;5.77;;;;;;;;;;5017123;28;20445;-62
2022/10/29 09:56:24;;;;;;;16.90;5.33;;;;;;;;;;5017129;28;20516;-60
2022/10/29 09:58:55;;;;;;;10.10;5.17;;;;;;;;;;5016796;28;20462;-61
2022/10/29 10:01:22;;;;;;;13.15;6.07;;;;;;;;;;5016770;28;20481;-62
2022/10/29 10:03:53;;;;;;;13.20;5.40;;;;;;;;;;5016657;28;20191;-62
2022/10/29 10:06:20;;;;;;;14.50;5.87;;;;;;;;;;5016353;28;20485;-62
2022/10/29 10:09:01;;;;;;;10.47;5.57;;;;;;;;;;5016571;28;20458;-62
2022/10/29 10:11:32;;;;;;;15.23;5.50;;;;;;;;;;5016523;28;20544;-62
2022/10/29 10:14:00;;;;;;;9.03;5.20;;;;;;;;;;5016423;28;20446;-62
2022/10/29 10:16:28;;;;;;;12.20;5.60;;;;;;;;;;5016101;28;20454;-61
2022/10/29 10:18:56;;;;;;;12.30;4.97;;;;;;;;;;5016428;28;20453;-62
2022/10/29 10:21:27;;;;;;;9.05;4.88;;;;;;;;;;5016403;28;20481;-62
2022/10/29 10:23:56;;;;;;;5.80;4.63;;;;;;;;;;5016106;28;20282;-62
2022/10/29 10:26:32;;;;;;;11.43;5.80;;;;;;;;;;5016169;28;20485;-62
2022/10/29 10:29:16;;;;;;;7.57;5.00;;;;;;;;;;5016188;28;20241;-62
2022/10/29 10:31:43;;;;;;;11.80;5.10;;;;;;;;;;5016293;28;20449;-62
2022/10/29 10:34:18;;;;;;;9.63;6.67;;;;;;;;;;5016214;28;20815;-62
2022/10/29 10:36:47;;;;;;;13.23;5.40;;;;;;;;;;5016076;28;20940;-62
2022/10/29 10:39:20;;;;;;;8.93;4.63;;;;;;;;;;5015936;28;20484;-62
2022/10/29 10:41:50;;;;;;;9.77;4.60;;;;;;;;;;5015915;28;20546;-62
2022/10/29 10:44:17;;;;;;;8.67;4.70;;;;;;;;;;5015778;28;20474;-62
2022/10/29 10:46:45;;;;;;;15.47;5.80;;;;;;;;;;5015959;28;20490;-63
2022/10/29 10:49:14;;;;;;;5.47;4.50;;;;;;;;;;5015874;28;20961;-62
2022/10/29 10:51:44;;;;;;;7.70;4.77;;;;;;;;;;5015677;28;20492;-62
2022/10/29 10:54:24;;;;;;;7.23;5.00;;;;;;;;;;5015589;28;20492;-62
2022/10/29 10:56:58;;;;;;;9.17;5.30;;;;;;;;;;5015787;28;20577;-63
2022/10/29 10:59:27;;;;;;;8.30;5.60;;;;;;;;;;5015746;28;20527;-62
2022/10/29 11:01:57;;;;;;;10.27;4.77;;;;;;;;;;5015480;28;20450;-62
2022/10/29 11:04:25;;;;;;;7.67;5.20;;;;;;;;;;5015269;28;20476;-62
2022/10/29 11:06:54;;;;;;;9.50;5.27;;;;;;;;;;5015554;28;20503;-61
2022/10/29 11:09:23;;;;;;;8.33;5.20;;;;;;;;;;5015645;28;20457;-61
2022/10/29 11:11:51;;;;;;;8.73;5.20;;;;;;;;;;5015255;28;20488;-63
2022/10/29 11:14:22;;;;;;;7.87;5.10;;;;;;;;;;5015610;28;20525;-62
2022/10/29 11:16:52;;;;;;;8.27;4.87;;;;;;;;;;5015223;28;20694;-62
2022/10/29 11:19:22;;;;;;;10.63;5.70;;;;;;;;;;5015052;28;20458;-62
2022/10/29 11:21:55;;;;;;;9.53;5.53;;;;;;;;;;5015274;28;20516;-62
2022/10/29 11:24:25;;;;;;;8.17;4.93;;;;;;;;;;5015300;28;20822;-62
2022/10/29 11:26:54;;;;;;;11.00;5.43;;;;;;;;;;5014859;28;20854;-62
2022/10/29 11:29:26;;;;;;;7.17;5.50;;;;;;;;;;5014832;28;20487;-62
2022/10/29 11:31:57;;;;;;;10.47;5.47;;;;;;;;;;5015164;28;20487;-63
2022/10/29 11:34:27;;;;;;;11.00;6.50;;;;;;;;;;5015068;28;20477;-63
2022/10/29 11:36:57;;;;;;;11.10;5.20;;;;;;;;;;5014751;28;20465;-61
2022/10/29 11:39:29;;;;;;;10.83;5.30;;;;;;;;;;5014857;28;20482;-60
2022/10/29 11:41:58;;;;;;;9.80;7.17;;;;;;;;;;5014868;28;20809;-62
2022/10/29 11:44:27;;;;;;;9.57;5.67;;;;;;;;;;5014460;28;20466;-62
2022/10/29 11:47:05;;;;;;;6.93;5.03;;;;;;;;;;5014638;28;20543;-62
2022/10/29 11:49:40;;;;;;;11.33;5.63;;;;;;;;;;5014663;28;20610;-62
2022/10/29 11:52:09;;;;;;;9.30;5.67;;;;;;;;;;5014654;28;20453;-62
2022/10/29 11:54:51;;;;;;;10.60;6.20;;;;;;;;;;5014604;28;20543;-62
2022/10/29 11:57:20;;;;;;;7.77;5.23;;;;;;;;;;5014417;28;20446;-61
2022/10/29 11:59:59;;;;;;;10.90;6.37;;;;;;;;;;5014640;28;20458;-63
2022/10/29 12:02:33;;;;;;;9.47;5.23;;;;;;;;;;5014499;28;20484;-63
2022/10/29 12:05:03;;;;;;;9.40;5.20;;;;;;;;;;5014275;28;20504;-62
2022/10/29 12:07:37;;;;;;;12.00;4.90;;;;;;;;;;5013725;28;20454;-63
2022/10/29 12:10:09;;;;;;;11.90;5.67;;;;;;;;;;5014378;28;20516;-63
2022/10/29 12:12:40;;;;;;;8.27;5.40;;;;;;;;;;5014313;28;20447;-62
2022/10/29 12:15:14;;;;;;;16.07;6.10;;;;;;;;;;5014237;28;20613;-63
2022/10/29 12:17:43;;;;;;;11.77;6.00;;;;;;;;;;5014118;28;20545;-63
2022/10/29 12:20:14;;;;;;;8.60;5.73;;;;;;;;;;5014191;28;20450;-62
2022/10/29 12:22:43;;;;;;;6.50;4.80;;;;;;;;;;5014225;28;20456;-62
2022/10/29 12:25:19;;;;;;;13.45;5.70;;;;;;;;;;5013983;28;20489;-61
2022/10/29 12:27:50;;;;;;;8.03;5.50;;;;;;;;;;5013938;28;20187;-62
2022/10/29 12:30:19;;;;;;;10.50;5.80;;;;;;;;;;5014098;28;20457;-62
2022/10/29 12:32:53;;;;;;;10.00;4.70;;;;;;;;;;5013811;28;20450;-62
2022/10/29 12:35:23;;;;;;;12.83;5.07;;;;;;;;;;5013829;28;20458;-63
2022/10/29 12:37:58;;;;;;;9.23;5.00;;;;;;;;;;5013895;28;20455;-62
2022/10/29 12:40:27;;;;;;;9.00;5.47;;;;;;;;;;5014108;28;20489;-62
2022/10/29 12:42:55;;;;;;;9.47;5.63;;;;;;;;;;5014648;28;20448;-60
2022/10/29 12:45:30;;;;;;;10.23;5.60;;;;;;;;;;5014235;28;20470;-62
2022/10/29 12:48:01;;;;;;;6.77;4.40;;;;;;;;;;5014409;28;20550;-62
2022/10/29 12:50:35;;;;;;;9.33;5.17;;;;;;;;;;5013551;28;20512;-61
2022/10/29 12:53:05;;;;;;;9.30;6.47;;;;;;;;;;5013887;28;20454;-61
2022/10/29 12:55:33;;;;;;;10.47;6.47;;;;;;;;;;5013554;28;20478;-61
2022/10/29 12:58:00;;;;;;;8.40;5.47;;;;;;;;;;5013591;28;20543;-62
2022/10/29 13:00:46;;;;;;;14.03;6.33;;;;;;;;;;5013416;28;20456;-61
2022/10/29 13:03:13;;;;;;;9.90;5.40;;;;;;;;;;5013247;28;20457;-61
2022/10/29 13:05:41;;;;;;;14.20;5.50;;;;;;;;;;5013551;28;20528;-62
2022/10/29 13:08:11;;;;;;;11.33;6.00;;;;;;;;;;5013139;28;20476;-61
2022/10/29 13:10:51;;;;;;;8.80;5.40;;;;;;;;;;5013189;28;20457;-61
2022/10/29 13:13:23;;;;;;;13.80;6.60;;;;;;;;;;5013518;28;20950;-61
2022/10/29 13:15:59;;;;;;;10.20;5.23;;;;;;;;;;5013104;28;20497;-61
2022/10/29 13:18:28;;;;;;;10.10;5.33;;;;;;;;;;5012559;28;20482;-61
2022/10/29 13:20:55;;;;;;;7.17;4.90;;;;;;;;;;5013257;28;20450;-61
2022/10/29 13:23:33;;;;;;;11.93;5.43;;;;;;;;;;5013203;28;20450;-62
2022/10/29 13:26:01;;;;;;;13.43;5.97;;;;;;;;;;5012947;28;20469;-62
2022/10/29 13:28:47;;;;;;;8.43;5.70;;;;;;;;;;5013087;28;20581;-61
2022/10/29 13:31:33;;;;;;;9.25;5.03;;;;;;;;;;5013271;28;20454;-61
2022/10/29 13:34:01;;;;;;;9.30;6.17;;;;;;;;;;5013139;28;20201;-61
2022/10/29 13:36:38;;;;;;;8.80;5.13;;;;;;;;;;5012909;28;20787;-61
2022/10/29 13:39:17;;;;;;;8.37;5.80;;;;;;;;;;5013072;28;20446;-61
2022/10/29 13:41:49;;;;;;;13.13;9.30;;;;;;;;;;5012943;28;20453;-61
2022/10/29 13:44:18;;;;;;;13.63;5.93;;;;;;;;;;5012777;28;20477;-61
2022/10/29 13:46:47;;;;;;;11.63;5.33;;;;;;;;;;5012781;28;20486;-61
2022/10/29 13:49:18;;;;;;;10.63;5.77;;;;;;;;;;5012727;28;20456;-62
2022/10/29 13:51:49;;;;;;;10.87;5.80;;;;;;;;;;5013076;28;20450;-59
2022/10/29 13:54:19;;;;;;;8.17;6.17;;;;;;;;;;5013076;28;20980;-61
2022/10/29 13:56:49;;;;;;;13.93;6.43;;;;;;;;;;5012938;28;20488;-61
2022/10/29 13:59:20;;;;;;;9.87;6.23;;;;;;;;;;5012984;28;20950;-62
2022/10/29 14:01:53;;;;;;;8.80;5.60;;;;;;;;;;5012738;28;20948;-61
2022/10/29 14:04:23;;;;;;;22.60;7.07;;;;;;;;;;5012913;28;20465;-61
2022/10/29 14:06:51;;;;;;;8.43;5.10;;;;;;;;;;5012605;28;20218;-61
2022/10/29 14:09:21;;;;;;;9.13;6.65;;;;;;;;;;5012794;28;20525;-61
2022/10/29 14:11:53;;;;;;;13.57;6.13;;;;;;;;;;5012686;28;20259;-62
2022/10/29 14:14:25;;;;;;;10.10;5.63;;;;;;;;;;5013143;28;20184;-62
2022/10/29 14:17:09;;;;;;;9.50;5.70;;;;;;;;;;5013150;28;20866;-61
2022/10/29 14:19:37;;;;;;;6.87;4.93;;;;;;;;;;5012647;28;20497;-61
2022/10/29 14:22:15;;;;;;;10.03;5.40;;;;;;;;;;5012556;28;20457;-62
2022/10/29 14:24:42;;;;;;;9.40;5.10;;;;;;;;;;5012553;28;20500;-61
2022/10/29 14:27:10;;;;;;;6.73;5.50;;;;;;;;;;5012628;28;20490;-62
2022/10/29 14:29:38;;;;;;;9.67;5.40;;;;;;;;;;5013342;28;20461;-62
2022/10/29 14:32:06;;;;;;;7.40;5.60;;;;;;;;;;5016090;28;20452;-62
2022/10/29 14:34:33;;;;;;;8.10;6.00;;;;;;;;;;5015997;28;20458;-61
2022/10/29 14:37:02;;;;;;;10.57;5.53;;;;;;;;;;5015798;28;20945;-62
2022/10/29 14:39:31;;;;;;;7.67;5.37;;;;;;;;;;5016141;28;20508;-61
2022/10/29 14:41:58;;;;;;;12.83;6.03;;;;;;;;;;5015811;28;20454;-61
2022/10/29 14:44:27;;;;;;;13.53;6.60;;;;;;;;;;5015889;28;20803;-61
2022/10/29 14:46:58;;;;;;;11.47;5.10;;;;;;;;;;5015987;28;20484;-61
2022/10/29 14:49:26;;;;;;;10.60;5.70;;;;;;;;;;5015547;28;20454;-61
2022/10/29 14:51:55;;;;;;;12.90;6.03;;;;;;;;;;5015891;28;20533;-61